createdAt,value
2022-10-13T00:00:50.364Z,9.80
2022-10-13T00:03:17.791Z,9.80
2022-10-13T00:05:50.841Z,9.80
2022-10-13T00:08:21.120Z,9.80
2022-10-13T00:10:50.325Z,9.70
2022-10-13T00:13:18.332Z,9.80
2022-10-13T00:15:46.732Z,9.70
2022-10-13T00:18:14.067Z,9.60
2022-10-13T00:20:46.136Z,9.60
2022-10-13T00:23:13.986Z,9.60
2022-10-13T00:25:42.653Z,9.70
2022-10-13T00:28:09.931Z,9.60
2022-10-13T00:30:38.122Z,9.60
2022-10-13T00:33:05.821Z,9.60
2022-10-13T00:35:33.129Z,9.60
2022-10-13T00:38:00.084Z,9.60
2022-10-13T00:40:26.886Z,9.60
2022-10-13T00:42:53.665Z,9.60
2022-10-13T00:45:29.403Z,9.50
2022-10-13T00:48:00.681Z,9.50
2022-10-13T00:50:36.294Z,9.50
2022-10-13T00:53:04.286Z,9.50
2022-10-13T00:55:34.113Z,9.60
2022-10-13T00:58:05.817Z,9.50
2022-10-13T01:00:34.313Z,9.50
2022-10-13T01:03:02.267Z,9.60
2022-10-13T01:05:30.294Z,9.60
2022-10-13T01:07:58.841Z,9.50
2022-10-13T01:10:44.651Z,9.60
2022-10-13T01:13:20.576Z,9.50
2022-10-13T01:16:00.927Z,9.60
2022-10-13T01:18:45.690Z,9.60
2022-10-13T01:21:22.373Z,9.60
2022-10-13T01:23:55.116Z,9.60
2022-10-13T01:26:25.129Z,9.50
2022-10-13T01:29:11.003Z,9.50
2022-10-13T01:31:56.641Z,9.50
2022-10-13T01:34:39.837Z,9.50
2022-10-13T01:37:31.481Z,9.50
2022-10-13T01:40:04.908Z,9.50
2022-10-13T01:42:42.886Z,9.50
2022-10-13T01:45:12.646Z,9.50
2022-10-13T01:47:40.292Z,9.50
2022-10-13T01:50:08.586Z,9.50
2022-10-13T01:52:39.060Z,9.50
2022-10-13T01:55:08.864Z,9.50
2022-10-13T01:57:39.692Z,9.50
2022-10-13T02:00:11.590Z,9.50
2022-10-13T02:02:43.489Z,9.50
2022-10-13T02:05:24.939Z,9.50
2022-10-13T02:08:25.161Z,9.50
2022-10-13T02:11:18.323Z,9.50
2022-10-13T02:13:59.473Z,9.50
2022-10-13T02:16:31.057Z,9.40
2022-10-13T02:18:58.512Z,9.40
2022-10-13T02:21:26.258Z,9.40
2022-10-13T02:23:53.128Z,9.40
2022-10-13T02:26:20.192Z,9.40
2022-10-13T02:28:46.990Z,9.40
2022-10-13T02:31:13.840Z,9.40
2022-10-13T02:33:40.669Z,9.50
2022-10-13T02:36:07.619Z,9.40
2022-10-13T02:38:34.520Z,9.40
2022-10-13T02:41:02.745Z,9.40
2022-10-13T02:43:30.347Z,9.40
2022-10-13T02:45:57.103Z,9.40
2022-10-13T02:48:24.060Z,9.40
2022-10-13T02:50:50.825Z,9.30
2022-10-13T02:53:17.760Z,9.30
2022-10-13T02:55:44.616Z,9.30
2022-10-13T02:58:11.480Z,9.40
2022-10-13T03:00:39.896Z,9.40
2022-10-13T03:03:07.097Z,9.40
2022-10-13T03:05:33.923Z,9.40
2022-10-13T03:08:00.733Z,9.30
2022-10-13T03:10:28.105Z,9.40
2022-10-13T03:12:55.805Z,9.40
2022-10-13T03:15:22.872Z,9.40
2022-10-13T03:17:50.045Z,9.50
2022-10-13T03:20:17.112Z,9.40
2022-10-13T03:22:47.388Z,9.50
2022-10-13T03:25:16.538Z,9.50
2022-10-13T03:27:43.299Z,9.50
2022-10-13T03:30:10.931Z,9.50
2022-10-13T03:32:37.693Z,9.50
2022-10-13T03:35:05.810Z,9.50
2022-10-13T03:37:32.574Z,9.50
2022-10-13T03:40:00.004Z,9.50
2022-10-13T03:42:26.769Z,9.50
2022-10-13T03:44:56.304Z,9.60
2022-10-13T03:47:23.607Z,9.60
2022-10-13T03:49:50.350Z,9.60
2022-10-13T03:52:17.292Z,9.70
2022-10-13T03:54:44.381Z,9.60
2022-10-13T03:57:11.139Z,9.60
2022-10-13T03:59:40.640Z,9.60
2022-10-13T04:02:08.200Z,9.70
2022-10-13T04:04:37.173Z,9.60
2022-10-13T04:07:04.056Z,9.60
2022-10-13T04:09:31.093Z,9.70
2022-10-13T04:11:57.833Z,9.60
2022-10-13T04:14:24.554Z,9.80
2022-10-13T04:16:51.339Z,9.70
2022-10-13T04:19:18.183Z,9.70
2022-10-13T04:21:45.148Z,9.70
2022-10-13T04:24:17.589Z,9.80
2022-10-13T04:26:45.245Z,9.70
2022-10-13T04:29:12.995Z,9.70
2022-10-13T04:31:42.643Z,9.70
2022-10-13T04:34:10.161Z,9.70
2022-10-13T04:36:37.132Z,9.70
2022-10-13T04:39:04.593Z,9.70
2022-10-13T04:41:31.428Z,9.70
2022-10-13T04:43:59.152Z,9.70
2022-10-13T04:46:27.277Z,9.70
2022-10-13T04:48:55.481Z,9.70
2022-10-13T04:51:25.084Z,9.70
2022-10-13T04:54:01.058Z,9.80
2022-10-13T04:56:29.084Z,9.80
2022-10-13T04:58:56.051Z,9.70
2022-10-13T05:01:24.614Z,9.90
2022-10-13T05:03:56.716Z,9.90
2022-10-13T05:06:26.666Z,9.80
2022-10-13T05:08:53.743Z,9.80
2022-10-13T05:11:20.694Z,9.80
2022-10-13T05:13:48.612Z,9.80
2022-10-13T05:16:17.127Z,9.90
2022-10-13T05:18:44.777Z,9.90
2022-10-13T05:21:14.664Z,9.90
2022-10-13T05:23:42.086Z,10.00
2022-10-13T05:26:12.100Z,9.90
2022-10-13T05:28:39.423Z,10.00
2022-10-13T05:31:15.432Z,9.90
2022-10-13T05:33:43.220Z,9.90
2022-10-13T05:36:22.406Z,9.90
2022-10-13T05:38:54.143Z,10.00
2022-10-13T05:41:22.491Z,10.00
2022-10-13T05:43:51.193Z,10.00
2022-10-13T05:46:17.943Z,9.90
2022-10-13T05:48:44.711Z,9.90
2022-10-13T05:51:16.199Z,9.80
2022-10-13T05:53:54.106Z,9.90
2022-10-13T05:56:27.243Z,9.90
2022-10-13T05:59:02.618Z,9.90
2022-10-13T06:01:32.823Z,9.90
2022-10-13T06:04:04.343Z,9.90
2022-10-13T06:06:31.794Z,9.90
2022-10-13T06:09:00.003Z,9.90
2022-10-13T06:11:27.366Z,9.90
2022-10-13T06:13:54.143Z,9.90
2022-10-13T06:16:20.943Z,9.90
2022-10-13T06:18:47.946Z,9.90
2022-10-13T06:21:14.975Z,9.90
2022-10-13T06:23:41.769Z,9.90
2022-10-13T06:26:11.566Z,9.90
2022-10-13T06:28:38.428Z,9.90
2022-10-13T06:31:06.995Z,10.00
2022-10-13T06:33:34.328Z,9.90
2022-10-13T06:36:03.346Z,9.90
2022-10-13T06:38:30.851Z,10.00
2022-10-13T06:41:05.390Z,10.00
2022-10-13T06:43:39.883Z,10.00
2022-10-13T06:46:07.580Z,10.10
2022-10-13T06:48:34.807Z,10.00
2022-10-13T06:51:07.658Z,10.20
2022-10-13T06:53:34.983Z,10.10
2022-10-13T06:56:06.085Z,10.20
2022-10-13T06:58:34.076Z,10.20
2022-10-13T07:01:01.057Z,10.30
2022-10-13T07:03:28.197Z,10.30
2022-10-13T07:05:55.279Z,10.40
2022-10-13T07:08:22.024Z,10.50
2022-10-13T07:10:48.856Z,10.50
2022-10-13T07:13:15.693Z,10.50
2022-10-13T07:15:42.519Z,10.60
2022-10-13T07:18:09.415Z,10.70
2022-10-13T07:20:36.213Z,10.80
2022-10-13T07:23:03.349Z,10.90
2022-10-13T07:25:30.190Z,10.90
2022-10-13T07:27:59.186Z,11.00
2022-10-13T07:30:26.659Z,11.00
2022-10-13T07:32:53.629Z,11.10
2022-10-13T07:35:24.747Z,11.10
2022-10-13T07:37:55.018Z,11.10
2022-10-13T07:40:21.924Z,11.20
2022-10-13T07:42:48.721Z,11.20
2022-10-13T07:45:15.720Z,11.20
2022-10-13T07:47:42.507Z,11.30
2022-10-13T07:50:10.516Z,11.40
2022-10-13T07:52:37.420Z,11.30
2022-10-13T07:55:04.600Z,11.40
2022-10-13T07:57:31.440Z,11.40
2022-10-13T07:59:58.258Z,11.50
2022-10-13T08:02:26.227Z,11.50
2022-10-13T08:04:53.069Z,11.60
2022-10-13T08:07:20.197Z,11.60
2022-10-13T08:09:47.239Z,11.70
2022-10-13T08:12:14.031Z,11.80
2022-10-13T08:14:42.114Z,11.90
2022-10-13T08:17:09.028Z,11.90
2022-10-13T08:19:35.875Z,12.00
2022-10-13T08:22:05.576Z,12.00
2022-10-13T08:24:36.069Z,12.10
2022-10-13T08:27:03.160Z,12.20
2022-10-13T08:29:30.010Z,12.10
2022-10-13T08:31:56.977Z,12.20
2022-10-13T08:34:25.071Z,12.30
2022-10-13T08:36:54.626Z,12.30
2022-10-13T08:39:22.552Z,12.40
2022-10-13T08:41:50.133Z,12.50
2022-10-13T08:47:13.489Z,12.50
2022-10-13T08:49:42.454Z,12.60
2022-10-13T08:52:19.208Z,12.60
2022-10-13T08:54:46.645Z,12.70
2022-10-13T08:57:13.676Z,12.60
2022-10-13T08:59:40.530Z,12.50
2022-10-13T09:02:33.553Z,12.60
2022-10-13T09:05:03.695Z,12.70
2022-10-13T09:07:34.996Z,12.70
2022-10-13T09:10:01.975Z,12.60
2022-10-13T09:12:28.786Z,12.80
2022-10-13T09:15:09.766Z,12.70
2022-10-13T09:17:38.787Z,12.80
2022-10-13T09:20:27.776Z,12.80
2022-10-13T09:23:19.875Z,12.80
2022-10-13T09:25:52.280Z,12.80
2022-10-13T09:28:30.780Z,12.90
2022-10-13T09:31:27.892Z,12.90
2022-10-13T09:34:01.509Z,12.80
2022-10-13T09:36:29.030Z,12.90
2022-10-13T09:39:13.649Z,12.90
2022-10-13T09:41:42.710Z,13.00
2022-10-13T09:44:28.736Z,13.00
2022-10-13T09:47:01.100Z,13.10
2022-10-13T09:49:39.908Z,13.20
2022-10-13T09:52:19.860Z,13.20
2022-10-13T09:54:51.120Z,13.30
2022-10-13T09:57:34.409Z,13.40
2022-10-13T10:00:04.449Z,13.50
2022-10-13T10:03:00.332Z,13.70
2022-10-13T10:05:56.251Z,13.80
2022-10-13T10:09:02.068Z,13.90
2022-10-13T10:11:35.224Z,13.90
2022-10-13T10:14:17.009Z,14.00
2022-10-13T10:21:08.395Z,14.20
2022-10-13T10:23:44.563Z,14.20
2022-10-13T10:26:24.231Z,14.20
2022-10-13T10:29:14.762Z,14.20
2022-10-13T10:32:14.641Z,14.20
2022-10-13T10:35:04.855Z,14.20
2022-10-13T10:37:46.487Z,14.20
2022-10-13T10:40:13.552Z,14.30
2022-10-13T10:42:58.732Z,14.30
2022-10-13T10:45:28.450Z,14.40
2022-10-13T10:48:02.670Z,14.30
2022-10-13T10:50:31.384Z,14.40
2022-10-13T10:53:19.905Z,14.50
2022-10-13T10:55:52.959Z,14.60
2022-10-13T10:58:23.963Z,14.60
2022-10-13T11:01:19.767Z,14.60
2022-10-13T11:04:35.675Z,14.60
2022-10-13T11:07:03.652Z,14.60
2022-10-13T11:09:42.719Z,14.50
2022-10-13T11:12:22.523Z,14.70
2022-10-13T11:15:21.824Z,14.60
2022-10-13T11:17:48.636Z,14.50
2022-10-13T11:20:21.613Z,14.70
2022-10-13T11:23:00.642Z,14.60
2022-10-13T11:25:45.124Z,14.50
2022-10-13T11:28:21.090Z,14.50
2022-10-13T11:31:17.994Z,14.40
2022-10-13T11:33:46.602Z,14.40
2022-10-13T11:36:32.311Z,14.40
2022-10-13T11:39:19.337Z,14.40
2022-10-13T11:42:14.232Z,14.30
2022-10-13T11:44:58.839Z,14.30
2022-10-13T11:48:04.073Z,14.20
2022-10-13T11:50:58.541Z,14.20
2022-10-13T11:53:40.385Z,14.10
2022-10-13T11:56:19.844Z,14.00
2022-10-13T11:58:46.703Z,14.00
2022-10-13T12:01:15.209Z,14.00
2022-10-13T12:03:44.512Z,14.00
2022-10-13T12:06:34.217Z,14.00
2022-10-13T12:09:15.807Z,14.00
2022-10-13T12:11:44.836Z,13.90
2022-10-13T12:14:24.162Z,13.80
2022-10-13T12:16:59.253Z,13.90
2022-10-13T12:19:28.757Z,13.90
2022-10-13T12:21:58.619Z,13.90
2022-10-13T12:24:28.376Z,14.00
2022-10-13T12:26:56.298Z,14.00
2022-10-13T12:29:31.044Z,13.90
2022-10-13T12:32:00.408Z,13.90
2022-10-13T12:34:28.349Z,13.90
2022-10-13T12:37:04.934Z,13.90
2022-10-13T12:39:34.631Z,13.80
2022-10-13T12:42:03.305Z,13.80
2022-10-13T12:44:32.331Z,13.90
2022-10-13T12:47:03.884Z,13.80
2022-10-13T12:49:37.414Z,13.80
2022-10-13T12:52:11.754Z,13.70
2022-10-13T12:54:46.081Z,13.70
2022-10-13T12:57:22.671Z,13.70
2022-10-13T12:59:49.617Z,13.60
2022-10-13T13:02:29.262Z,13.60
2022-10-13T13:04:56.177Z,13.70
2022-10-13T13:07:29.541Z,13.70
2022-10-13T13:10:01.461Z,13.70
2022-10-13T13:12:28.999Z,13.80
2022-10-13T13:14:56.836Z,13.80
2022-10-13T13:17:56.715Z,13.80
2022-10-13T13:20:37.711Z,13.80
2022-10-13T13:23:05.823Z,13.60
2022-10-13T13:25:32.649Z,13.70
2022-10-13T13:27:59.500Z,13.60
2022-10-13T13:30:26.727Z,13.60
2022-10-13T13:32:53.552Z,13.60
2022-10-13T13:35:20.438Z,13.50
2022-10-13T13:37:49.895Z,13.60
2022-10-13T13:40:28.253Z,13.70
2022-10-13T13:42:55.834Z,13.60
2022-10-13T13:45:24.951Z,13.60
2022-10-13T13:47:51.972Z,13.50
2022-10-13T13:50:35.965Z,13.50
2022-10-13T13:53:03.400Z,13.60
2022-10-13T13:55:30.581Z,13.50
2022-10-13T13:57:58.007Z,13.50
2022-10-13T14:00:24.909Z,13.50
2022-10-13T14:02:51.946Z,13.50
2022-10-13T14:05:18.867Z,13.50
2022-10-13T14:07:47.993Z,13.50
2022-10-13T14:10:15.130Z,13.50
2022-10-13T14:12:42.045Z,13.60
2022-10-13T14:15:09.606Z,13.60
2022-10-13T14:17:36.501Z,13.60
2022-10-13T14:20:03.492Z,13.60
2022-10-13T14:22:32.893Z,13.60
2022-10-13T14:24:59.735Z,13.70
2022-10-13T14:27:26.888Z,13.70
2022-10-13T14:29:54.980Z,13.70
2022-10-13T14:32:22.123Z,13.70
2022-10-13T14:34:51.706Z,13.70
2022-10-13T14:37:22.903Z,13.70
2022-10-13T14:39:50.149Z,13.60
2022-10-13T14:42:17.013Z,13.70
2022-10-13T14:44:43.933Z,13.70
2022-10-13T14:47:10.774Z,13.70
2022-10-13T14:49:37.800Z,13.70
2022-10-13T14:52:05.194Z,13.70
2022-10-13T14:54:34.592Z,13.60
2022-10-13T14:57:05.293Z,13.70
2022-10-13T14:59:32.354Z,13.70
2022-10-13T15:01:59.257Z,13.70
2022-10-13T15:04:26.686Z,13.60
2022-10-13T15:06:53.868Z,13.60
2022-10-13T15:09:25.542Z,13.60
2022-10-13T15:12:00.568Z,13.60
2022-10-13T15:14:27.492Z,13.60
2022-10-13T15:16:54.365Z,13.70
2022-10-13T15:19:21.191Z,13.60
2022-10-13T15:21:48.082Z,13.60
2022-10-13T15:24:18.415Z,13.60
2022-10-13T15:26:47.789Z,13.60
2022-10-13T15:29:14.584Z,13.60
2022-10-13T15:31:41.459Z,13.70
2022-10-13T15:34:08.359Z,13.60
2022-10-13T15:36:35.413Z,13.60
2022-10-13T15:39:02.314Z,13.60
2022-10-13T15:41:29.141Z,13.60
2022-10-13T15:43:56.028Z,13.50
2022-10-13T15:46:24.512Z,13.60
2022-10-13T15:48:53.438Z,13.50
2022-10-13T15:51:22.883Z,13.50
2022-10-13T15:53:50.033Z,13.40
2022-10-13T15:56:18.293Z,13.40
2022-10-13T15:58:45.617Z,13.40
2022-10-13T16:01:13.566Z,13.40
2022-10-13T16:03:41.073Z,13.30
2022-10-13T16:06:10.405Z,13.30
2022-10-13T16:08:39.519Z,13.30
2022-10-13T16:11:11.305Z,13.30
2022-10-13T16:13:39.336Z,13.30
2022-10-13T16:16:06.894Z,13.30
2022-10-13T16:18:36.412Z,13.20
2022-10-13T16:21:22.497Z,13.30
2022-10-13T16:23:49.973Z,13.30
2022-10-13T16:26:18.011Z,13.30
2022-10-13T16:28:46.067Z,13.30
2022-10-13T16:31:15.853Z,13.30
2022-10-13T16:33:44.113Z,13.40
2022-10-13T16:36:13.898Z,13.30
2022-10-13T16:38:42.345Z,13.30
2022-10-13T16:41:13.190Z,13.30
2022-10-13T16:43:40.755Z,13.30
2022-10-13T16:46:08.395Z,13.30
2022-10-13T16:48:35.614Z,13.20
2022-10-13T16:51:07.720Z,13.30
2022-10-13T16:53:35.494Z,13.30
2022-10-13T16:56:05.299Z,13.20
2022-10-13T16:58:32.508Z,13.20
2022-10-13T17:01:04.913Z,13.20
2022-10-13T17:03:31.851Z,13.20
2022-10-13T17:05:58.972Z,13.20
2022-10-13T17:08:26.011Z,13.20
2022-10-13T17:10:58.051Z,13.10
2022-10-13T17:13:25.537Z,13.10
2022-10-13T17:15:53.967Z,13.10
2022-10-13T17:18:20.921Z,13.00
2022-10-13T17:21:03.195Z,13.00
2022-10-13T17:23:31.041Z,13.00
2022-10-13T17:26:09.478Z,13.00
2022-10-13T17:28:37.271Z,13.00
2022-10-13T17:31:10.168Z,13.00
2022-10-13T17:33:39.106Z,12.90
2022-10-13T17:36:12.857Z,12.90
2022-10-13T17:38:40.061Z,12.90
2022-10-13T17:41:08.635Z,12.90
2022-10-13T17:43:37.352Z,12.90
2022-10-13T17:46:35.507Z,12.90
2022-10-13T17:49:02.382Z,12.90
2022-10-13T17:51:29.302Z,12.90
2022-10-13T17:53:59.233Z,12.90
2022-10-13T17:56:26.839Z,12.90
2022-10-13T17:58:54.323Z,12.90
2022-10-13T18:01:33.807Z,12.90
2022-10-13T18:04:03.140Z,12.90
2022-10-13T18:06:37.880Z,12.90
2022-10-13T18:09:07.988Z,12.80
2022-10-13T18:11:36.088Z,12.80
2022-10-13T18:14:03.452Z,12.80
2022-10-13T18:16:30.331Z,12.80
2022-10-13T18:18:57.200Z,12.70
2022-10-13T18:21:27.791Z,12.70
2022-10-13T18:23:59.896Z,12.80
2022-10-13T18:26:28.521Z,12.80
2022-10-13T18:28:57.078Z,12.80
2022-10-13T18:31:30.609Z,12.80
2022-10-13T18:34:00.139Z,12.90
2022-10-13T18:36:30.925Z,12.90
2022-10-13T18:39:07.515Z,12.90
2022-10-13T18:41:36.598Z,12.90
2022-10-13T18:44:04.306Z,12.90
2022-10-13T18:46:35.794Z,12.90
2022-10-13T18:49:07.216Z,12.90
2022-10-13T18:51:36.441Z,12.90
2022-10-13T18:54:04.856Z,12.90
2022-10-13T18:56:33.212Z,12.90
2022-10-13T18:59:01.994Z,13.00
2022-10-13T19:01:31.509Z,12.90
2022-10-13T19:03:58.428Z,13.00
2022-10-13T19:06:27.378Z,12.90
2022-10-13T19:09:03.477Z,12.90
2022-10-13T19:11:31.842Z,12.90
2022-10-13T19:14:00.193Z,12.90
2022-10-13T19:16:29.765Z,12.90
2022-10-13T19:18:56.828Z,12.90
2022-10-13T19:21:24.505Z,12.90
2022-10-13T19:23:51.743Z,12.90
2022-10-13T19:26:21.820Z,12.90
2022-10-13T19:28:48.775Z,12.90
2022-10-13T19:31:18.249Z,12.90
2022-10-13T19:33:47.182Z,12.90
2022-10-13T19:36:24.845Z,12.90
2022-10-13T19:38:52.238Z,12.90
2022-10-13T19:41:19.242Z,12.90
2022-10-13T19:43:46.081Z,12.90
2022-10-13T19:46:13.224Z,12.90
2022-10-13T19:48:40.068Z,12.90
2022-10-13T19:51:08.343Z,12.90
2022-10-13T19:53:36.478Z,12.90
2022-10-13T19:56:04.034Z,12.90
2022-10-13T19:58:30.919Z,12.90
2022-10-13T20:01:04.264Z,13.00
2022-10-13T20:03:31.382Z,12.90
2022-10-13T20:05:58.476Z,12.90
2022-10-13T20:08:25.356Z,12.90
2022-10-13T20:10:52.173Z,12.90
2022-10-13T20:13:19.155Z,13.00
2022-10-13T20:15:45.997Z,12.90
2022-10-13T20:18:13.051Z,12.90
2022-10-13T20:20:41.501Z,12.90
2022-10-13T20:23:08.991Z,12.90
2022-10-13T20:25:38.065Z,12.90
2022-10-13T20:28:06.141Z,12.90
2022-10-13T20:30:33.721Z,12.90
2022-10-13T20:33:00.862Z,13.00
2022-10-13T20:35:27.743Z,12.90
2022-10-13T20:37:54.914Z,12.90
2022-10-13T20:40:22.169Z,12.90
2022-10-13T20:42:52.769Z,12.90
2022-10-13T20:45:19.700Z,12.90
2022-10-13T20:47:47.452Z,12.90
2022-10-13T20:50:14.825Z,13.00
2022-10-13T20:52:41.735Z,13.00
2022-10-13T20:55:09.123Z,13.00
2022-10-13T20:57:35.874Z,12.90
2022-10-13T21:00:03.341Z,12.90
2022-10-13T21:02:30.159Z,12.90
2022-10-13T21:04:56.976Z,12.90
2022-10-13T21:07:24.203Z,12.90
2022-10-13T21:09:53.793Z,12.90
2022-10-13T21:12:21.430Z,12.80
2022-10-13T21:14:48.499Z,12.90
2022-10-13T21:17:15.342Z,12.90
2022-10-13T21:19:42.159Z,12.90
2022-10-13T21:22:09.206Z,12.90
2022-10-13T21:24:36.043Z,12.90
2022-10-13T21:27:02.978Z,12.90
2022-10-13T21:29:29.891Z,12.90
2022-10-13T21:31:56.664Z,12.90
2022-10-13T21:34:23.507Z,12.90
2022-10-13T21:36:50.281Z,12.90
2022-10-13T21:39:17.308Z,12.90
2022-10-13T21:41:44.057Z,12.90
2022-10-13T21:44:13.987Z,12.80
2022-10-13T21:46:41.181Z,12.80
2022-10-13T21:49:07.967Z,12.90
2022-10-13T21:51:37.248Z,12.90
2022-10-13T21:54:10.048Z,13.00
2022-10-13T21:56:38.264Z,12.90
2022-10-13T21:59:05.877Z,12.90
2022-10-13T22:01:33.318Z,12.90
2022-10-13T22:04:01.877Z,12.90
2022-10-13T22:06:30.735Z,12.90
2022-10-13T22:08:59.278Z,12.90
2022-10-13T22:11:29.378Z,12.80
2022-10-13T22:13:57.398Z,12.90
2022-10-13T22:16:31.021Z,12.90
2022-10-13T22:18:58.722Z,12.80
2022-10-13T22:21:29.345Z,12.90
2022-10-13T22:23:58.276Z,12.90
2022-10-13T22:26:25.907Z,12.80
2022-10-13T22:28:53.134Z,12.80
2022-10-13T22:31:20.069Z,12.90
2022-10-13T22:33:47.546Z,12.90
2022-10-13T22:36:17.370Z,12.90
2022-10-13T22:38:45.484Z,12.80
2022-10-13T22:41:13.364Z,12.90
2022-10-13T22:43:41.762Z,12.80
2022-10-13T22:46:08.531Z,12.90
2022-10-13T22:48:40.575Z,12.80
2022-10-13T22:51:08.033Z,12.80
2022-10-13T22:53:34.917Z,12.90
2022-10-13T22:56:08.842Z,12.80
2022-10-13T22:58:36.180Z,12.80
2022-10-13T23:01:12.730Z,12.80
2022-10-13T23:03:40.530Z,12.80
2022-10-13T23:06:12.316Z,12.80
2022-10-13T23:08:39.328Z,12.80
2022-10-13T23:11:06.504Z,12.80
2022-10-13T23:13:33.516Z,12.80
2022-10-13T23:16:04.328Z,12.70
2022-10-13T23:18:31.469Z,12.80
2022-10-13T23:20:58.324Z,12.80
2022-10-13T23:23:25.103Z,12.80
2022-10-13T23:25:51.872Z,12.80
2022-10-13T23:28:18.753Z,12.80
2022-10-13T23:30:45.543Z,12.70
2022-10-13T23:33:12.319Z,12.70
2022-10-13T23:35:39.118Z,12.80
2022-10-13T23:38:05.972Z,12.70
2022-10-13T23:40:34.117Z,12.80
2022-10-13T23:43:01.791Z,12.80
2022-10-13T23:45:28.532Z,12.70
2022-10-13T23:47:55.264Z,12.80
2022-10-13T23:50:22.019Z,12.70
2022-10-13T23:52:48.853Z,12.70
2022-10-13T23:55:15.857Z,12.80
2022-10-13T23:57:42.637Z,12.80
